createdAt,value
2019-02-04T00:00:06.051Z,85.40
2019-02-04T00:01:05.098Z,85.30
2019-02-04T00:02:07.729Z,85.30
2019-02-04T00:03:10.733Z,85.20
2019-02-04T00:04:11.764Z,85.40
2019-02-04T00:05:05.960Z,85.30
2019-02-04T00:06:07.560Z,85.30
2019-02-04T00:07:07.093Z,85.40
2019-02-04T00:08:05.523Z,85.30
2019-02-04T00:09:08.158Z,85.40
2019-02-04T00:10:05.085Z,85.40
2019-02-04T00:11:05.157Z,85.30
2019-02-04T00:12:07.671Z,85.40
2019-02-04T00:13:05.654Z,85.40
2019-02-04T00:14:08.216Z,85.40
2019-02-04T00:15:05.407Z,85.40
2019-02-04T00:16:08.258Z,85.30
2019-02-04T00:17:07.895Z,85.20
2019-02-04T00:18:05.844Z,85.30
2019-02-04T00:19:08.452Z,85.30
2019-02-04T00:20:05.456Z,85.30
2019-02-04T00:21:05.598Z,85.30
2019-02-04T00:22:05.667Z,85.20
2019-02-04T00:23:06.061Z,85.20
2019-02-04T00:24:08.176Z,85.40
2019-02-04T00:25:05.220Z,85.40
2019-02-04T00:26:05.243Z,85.40
2019-02-04T00:27:07.842Z,85.40
2019-02-04T00:28:08.522Z,85.40
2019-02-04T00:29:05.462Z,85.40
2019-02-04T00:30:05.180Z,85.40
2019-02-04T00:31:05.640Z,85.40
2019-02-04T00:32:05.716Z,85.40
2019-02-04T00:33:05.821Z,85.50
2019-02-04T00:34:05.867Z,85.50
2019-02-04T00:35:08.437Z,85.60
2019-02-04T00:36:07.998Z,85.60
2019-02-04T00:37:08.508Z,85.60
2019-02-04T00:38:05.573Z,85.60
2019-02-04T00:39:05.650Z,85.60
2019-02-04T00:40:05.843Z,85.70
2019-02-04T00:41:08.432Z,85.70
2019-02-04T00:42:05.392Z,85.70
2019-02-04T00:43:05.498Z,85.70
2019-02-04T00:44:05.470Z,85.70
2019-02-04T00:45:05.522Z,85.80
2019-02-04T00:46:05.821Z,85.70
2019-02-04T00:47:05.068Z,85.70
2019-02-04T00:48:05.225Z,85.70
2019-02-04T00:49:05.266Z,85.80
2019-02-04T00:50:05.278Z,85.80
2019-02-04T00:51:05.326Z,85.80
2019-02-04T00:52:05.362Z,85.80
2019-02-04T00:53:05.420Z,85.80
2019-02-04T00:54:05.734Z,85.80
2019-02-04T00:55:05.044Z,85.80
2019-02-04T00:56:10.115Z,85.80
2019-02-04T00:57:05.102Z,85.80
2019-02-04T00:58:05.165Z,85.80
2019-02-04T00:59:05.319Z,85.70
2019-02-04T01:00:05.374Z,85.70
2019-02-04T01:01:05.480Z,85.70
2019-02-04T01:02:05.990Z,85.70
2019-02-04T01:03:05.358Z,85.70
2019-02-04T01:04:05.484Z,85.70
2019-02-04T01:05:05.855Z,85.70
2019-02-04T01:06:05.933Z,85.70
2019-02-04T01:07:06.099Z,85.70
2019-02-04T01:08:07.836Z,85.70
2019-02-04T01:09:08.281Z,85.70
2019-02-04T01:10:05.535Z,85.70
2019-02-04T01:11:08.342Z,85.70
2019-02-04T01:12:07.750Z,85.70
2019-02-04T01:13:05.779Z,85.70
2019-02-04T01:14:08.559Z,85.60
2019-02-04T01:15:05.504Z,85.70
2019-02-04T01:16:05.550Z,85.60
2019-02-04T01:17:05.615Z,85.60
2019-02-04T01:18:06.052Z,85.60
2019-02-04T01:19:08.075Z,85.60
2019-02-04T01:20:04.993Z,85.50
2019-02-04T01:21:05.027Z,85.50
2019-02-04T01:22:05.090Z,85.50
2019-02-04T01:23:07.698Z,85.50
2019-02-04T01:24:05.650Z,85.50
2019-02-04T01:25:05.908Z,85.50
2019-02-04T01:26:07.929Z,85.40
2019-02-04T01:27:07.716Z,85.40
2019-02-04T01:28:05.838Z,85.50
2019-02-04T01:29:05.944Z,85.40
2019-02-04T01:30:05.503Z,85.50
2019-02-04T01:31:08.190Z,85.40
2019-02-04T01:32:07.754Z,85.40
2019-02-04T01:33:08.457Z,85.40
2019-02-04T01:34:10.641Z,85.40
2019-02-04T01:35:08.285Z,85.40
2019-02-04T01:36:05.286Z,85.40
2019-02-04T01:37:10.491Z,85.30
2019-02-04T01:38:07.997Z,85.20
2019-02-04T01:39:07.187Z,85.20
2019-02-04T01:40:07.708Z,85.10
2019-02-04T01:41:08.090Z,85.10
2019-02-04T01:42:06.287Z,85.10
2019-02-04T01:43:05.607Z,85.00
2019-02-04T01:44:05.739Z,84.90
2019-02-04T01:45:05.800Z,84.90
2019-02-04T01:46:05.846Z,84.90
2019-02-04T01:47:15.138Z,85.00
2019-02-04T01:48:05.220Z,85.00
2019-02-04T01:49:05.232Z,84.90
2019-02-04T01:50:05.325Z,85.00
2019-02-04T01:51:05.381Z,85.00
2019-02-04T01:52:10.601Z,85.10
2019-02-04T01:53:05.478Z,85.10
2019-02-04T01:54:05.462Z,85.00
2019-02-04T01:55:05.320Z,84.90
2019-02-04T01:56:05.355Z,84.90
2019-02-04T01:57:09.208Z,84.60
2019-02-04T01:58:05.304Z,84.60
2019-02-04T01:59:07.583Z,84.70
2019-02-04T02:00:05.603Z,84.70
2019-02-04T02:01:05.334Z,84.80
2019-02-04T02:02:05.372Z,84.80
2019-02-04T02:03:05.398Z,84.90
2019-02-04T02:04:07.974Z,84.90
2019-02-04T02:05:06.135Z,84.90
2019-02-04T02:06:07.985Z,84.90
2019-02-04T02:07:04.973Z,85.00
2019-02-04T02:08:04.980Z,84.90
2019-02-04T02:09:10.064Z,84.70
2019-02-04T02:10:05.013Z,84.80
2019-02-04T02:11:05.127Z,84.80
2019-02-04T02:12:05.277Z,84.80
2019-02-04T02:13:05.441Z,84.80
2019-02-04T02:14:05.829Z,84.70
2019-02-04T02:15:08.659Z,84.70
2019-02-04T02:16:10.835Z,84.90
2019-02-04T02:17:06.024Z,84.90
2019-02-04T02:18:05.078Z,84.90
2019-02-04T02:19:05.334Z,84.90
2019-02-04T02:20:05.564Z,84.80
2019-02-04T02:21:10.773Z,84.90
2019-02-04T02:22:05.708Z,84.70
2019-02-04T02:23:05.758Z,84.80
2019-02-04T02:24:05.871Z,84.80
2019-02-04T02:25:05.965Z,84.80
2019-02-04T02:26:07.588Z,84.90
2019-02-04T02:27:05.530Z,84.90
2019-02-04T02:28:05.792Z,85.00
2019-02-04T02:29:05.981Z,85.00
2019-02-04T02:30:08.601Z,85.00
2019-02-04T02:31:05.725Z,85.00
2019-02-04T02:32:05.832Z,84.90
2019-02-04T02:33:05.946Z,85.00
2019-02-04T02:34:05.026Z,84.90
2019-02-04T02:35:07.673Z,85.00
2019-02-04T02:36:08.152Z,84.90
2019-02-04T02:37:05.483Z,85.00
2019-02-04T02:38:08.359Z,84.80
2019-02-04T02:39:05.269Z,84.80
2019-02-04T02:40:07.956Z,84.60
2019-02-04T02:41:07.496Z,84.50
2019-02-04T02:42:08.100Z,84.50
2019-02-04T02:43:07.697Z,84.50
2019-02-04T02:44:08.199Z,84.60
2019-02-04T02:45:05.329Z,84.60
2019-02-04T02:46:05.816Z,84.60
2019-02-04T02:47:08.461Z,84.60
2019-02-04T02:48:05.305Z,84.50
2019-02-04T02:49:07.957Z,84.60
2019-02-04T02:50:05.777Z,84.60
2019-02-04T02:51:08.528Z,84.70
2019-02-04T02:52:08.077Z,84.80
2019-02-04T02:53:08.023Z,84.80
2019-02-04T02:54:05.482Z,84.80
2019-02-04T02:55:05.686Z,84.80
2019-02-04T02:56:05.939Z,84.60
2019-02-04T02:57:07.609Z,84.60
2019-02-04T02:58:05.593Z,84.50
2019-02-04T02:59:05.748Z,84.50
2019-02-04T03:00:06.191Z,84.60
2019-02-04T03:01:05.418Z,84.60
2019-02-04T03:02:05.723Z,84.70
2019-02-04T03:03:05.865Z,84.80
2019-02-04T03:04:08.447Z,84.90
2019-02-04T03:05:07.862Z,84.90
2019-02-04T03:06:05.796Z,84.90
2019-02-04T03:07:05.834Z,85.00
2019-02-04T03:08:06.111Z,85.00
2019-02-04T03:09:05.379Z,85.00
2019-02-04T03:10:08.035Z,85.10
2019-02-04T03:11:05.021Z,85.10
2019-02-04T03:12:07.587Z,85.10
2019-02-04T03:13:08.087Z,85.10
2019-02-04T03:14:05.009Z,85.10
2019-02-04T03:15:05.132Z,85.10
2019-02-04T03:16:05.507Z,85.10
2019-02-04T03:17:05.907Z,85.10
2019-02-04T03:18:05.098Z,85.10
2019-02-04T03:19:05.148Z,85.10
2019-02-04T03:20:05.214Z,85.00
2019-02-04T03:21:07.914Z,85.20
2019-02-04T03:22:08.453Z,85.20
2019-02-04T03:23:05.470Z,85.20
2019-02-04T03:24:05.835Z,85.20
2019-02-04T03:25:10.717Z,85.10
2019-02-04T03:26:05.022Z,85.10
2019-02-04T03:27:05.093Z,85.20
2019-02-04T03:28:10.254Z,85.20
2019-02-04T03:29:12.779Z,85.20
2019-02-04T03:30:08.241Z,85.30
2019-02-04T03:31:07.806Z,85.20
2019-02-04T03:32:06.116Z,85.20
2019-02-04T03:33:05.541Z,85.20
2019-02-04T03:34:10.798Z,85.30
2019-02-04T03:35:08.398Z,85.20
2019-02-04T03:36:05.365Z,85.30
2019-02-04T03:37:05.536Z,85.30
2019-02-04T03:38:05.614Z,85.30
2019-02-04T03:39:10.871Z,85.30
2019-02-04T03:40:06.085Z,85.50
2019-02-04T03:41:05.549Z,85.30
2019-02-04T03:42:08.223Z,85.30
2019-02-04T03:43:10.380Z,85.30
2019-02-04T03:44:07.841Z,85.30
2019-02-04T03:45:05.881Z,85.30
2019-02-04T03:46:07.555Z,85.40
2019-02-04T03:47:05.596Z,85.40
2019-02-04T03:48:09.773Z,85.40
2019-02-04T03:49:08.424Z,85.40
2019-02-04T03:50:05.379Z,85.40
2019-02-04T03:51:05.462Z,85.30
2019-02-04T03:52:08.068Z,85.30
2019-02-04T03:53:05.010Z,85.30
2019-02-04T03:54:07.643Z,85.30
2019-02-04T03:55:05.592Z,85.30
2019-02-04T03:56:06.086Z,85.30
2019-02-04T03:57:05.579Z,85.30
2019-02-04T03:58:08.246Z,85.30
2019-02-04T03:59:07.689Z,85.30
2019-02-04T04:00:05.639Z,85.30
2019-02-04T04:01:05.869Z,85.20
2019-02-04T04:02:05.992Z,85.10
2019-02-04T04:03:05.113Z,85.20
2019-02-04T04:04:05.638Z,85.20
2019-02-04T04:05:07.638Z,85.40
2019-02-04T04:06:05.755Z,85.30
2019-02-04T04:07:08.353Z,85.30
2019-02-04T04:08:07.853Z,85.30
2019-02-04T04:09:08.409Z,85.30
2019-02-04T04:10:13.024Z,85.20
2019-02-04T04:11:04.973Z,85.30
2019-02-04T04:12:12.634Z,85.20
2019-02-04T04:13:05.556Z,85.20
2019-02-04T04:14:05.657Z,85.20
2019-02-04T04:15:08.412Z,85.20
2019-02-04T04:16:05.420Z,85.20
2019-02-04T04:17:08.079Z,85.20
2019-02-04T04:18:16.293Z,85.30
2019-02-04T04:19:05.404Z,85.20
2019-02-04T04:20:05.644Z,85.20
2019-02-04T04:21:07.590Z,85.10
2019-02-04T04:22:05.669Z,85.20
2019-02-04T04:23:06.088Z,85.10
2019-02-04T04:24:07.669Z,85.10
2019-02-04T04:25:05.778Z,85.10
2019-02-04T04:26:08.402Z,85.00
2019-02-04T04:27:07.861Z,85.00
2019-02-04T04:28:05.724Z,85.00
2019-02-04T04:29:05.787Z,85.10
2019-02-04T04:30:10.296Z,85.20
2019-02-04T04:31:05.275Z,85.20
2019-02-04T04:32:07.968Z,85.20
2019-02-04T04:33:08.477Z,85.20
2019-02-04T04:34:05.400Z,85.30
2019-02-04T04:35:08.099Z,85.30
2019-02-04T04:36:05.134Z,85.30
2019-02-04T04:37:05.270Z,85.30
2019-02-04T04:38:07.929Z,85.30
2019-02-04T04:39:05.923Z,85.30
2019-02-04T04:40:07.633Z,85.20
2019-02-04T04:41:05.606Z,85.30
2019-02-04T04:42:10.958Z,85.30
2019-02-04T04:43:06.226Z,85.30
2019-02-04T04:44:05.623Z,85.20
2019-02-04T04:45:05.832Z,85.20
2019-02-04T04:46:06.045Z,85.20
2019-02-04T04:47:07.610Z,85.10
2019-02-04T04:48:08.052Z,85.10
2019-02-04T04:49:06.013Z,85.10
2019-02-04T04:50:05.576Z,85.00
2019-02-04T04:51:05.491Z,84.90
2019-02-04T04:52:05.864Z,84.90
2019-02-04T04:53:05.893Z,85.00
2019-02-04T04:54:08.409Z,85.00
2019-02-04T04:55:08.016Z,85.00
2019-02-04T04:56:04.968Z,85.10
2019-02-04T04:57:05.038Z,85.10
2019-02-04T04:58:07.575Z,85.00
2019-02-04T04:59:08.336Z,85.00
2019-02-04T05:00:07.908Z,85.00
2019-02-04T05:01:08.336Z,84.90
2019-02-04T05:02:05.267Z,85.00
2019-02-04T05:03:05.296Z,84.80
2019-02-04T05:04:05.441Z,84.90
2019-02-04T05:05:05.493Z,84.70
2019-02-04T05:06:08.045Z,84.70
2019-02-04T05:07:06.256Z,84.70
2019-02-04T05:08:05.681Z,84.70
2019-02-04T05:09:05.727Z,84.70
2019-02-04T05:10:08.450Z,84.60
2019-02-04T05:11:05.386Z,84.70
2019-02-04T05:12:05.474Z,84.60
2019-02-04T05:13:08.141Z,84.70
2019-02-04T05:14:07.637Z,84.70
2019-02-04T05:15:05.933Z,84.70
2019-02-04T05:16:05.292Z,84.80
2019-02-04T05:17:05.378Z,84.80
2019-02-04T05:18:07.951Z,85.00
2019-02-04T05:19:08.411Z,85.00
2019-02-04T05:20:07.857Z,85.00
2019-02-04T05:21:08.268Z,84.90
2019-02-04T05:22:07.880Z,84.80
2019-02-04T05:23:08.882Z,84.70
2019-02-04T05:24:04.981Z,84.80
2019-02-04T05:25:05.594Z,84.80
2019-02-04T05:26:05.721Z,84.80
2019-02-04T05:27:05.775Z,84.90
2019-02-04T05:28:06.071Z,85.00
2019-02-04T05:29:05.218Z,85.00
2019-02-04T05:30:07.779Z,85.00
2019-02-04T05:31:06.130Z,85.00
2019-02-04T05:32:05.769Z,85.00
2019-02-04T05:33:13.635Z,84.80
2019-02-04T05:34:08.150Z,84.70
2019-02-04T05:35:05.139Z,84.80
2019-02-04T05:36:07.803Z,84.60
2019-02-04T05:37:05.829Z,84.60
2019-02-04T05:38:06.006Z,84.60
2019-02-04T05:39:05.149Z,84.70
2019-02-04T05:40:05.208Z,84.70
2019-02-04T05:41:05.460Z,84.70
2019-02-04T05:42:05.546Z,84.80
2019-02-04T05:43:05.622Z,84.80
2019-02-04T05:44:08.691Z,85.00
2019-02-04T05:45:08.219Z,84.70
2019-02-04T05:46:05.360Z,84.80
2019-02-04T05:47:08.404Z,84.90
2019-02-04T05:48:08.317Z,84.90
2019-02-04T05:49:05.279Z,84.90
2019-02-04T05:50:10.584Z,84.90
2019-02-04T05:51:05.693Z,84.90
2019-02-04T05:52:16.020Z,84.80
2019-02-04T05:53:08.936Z,84.80
2019-02-04T05:54:06.010Z,84.90
2019-02-04T05:55:10.797Z,84.70
2019-02-04T05:56:05.169Z,84.80
2019-02-04T05:57:05.280Z,84.80
2019-02-04T05:58:05.580Z,84.80
2019-02-04T05:59:05.704Z,84.80
2019-02-04T06:00:05.283Z,84.90
2019-02-04T06:01:07.896Z,84.90
2019-02-04T06:02:06.177Z,84.90
2019-02-04T06:03:05.635Z,84.90
2019-02-04T06:04:08.280Z,85.00
2019-02-04T06:05:05.190Z,85.00
2019-02-04T06:06:10.450Z,85.00
2019-02-04T06:07:05.391Z,85.00
2019-02-04T06:08:05.618Z,85.00
2019-02-04T06:09:05.762Z,85.00
2019-02-04T06:10:06.349Z,85.00
2019-02-04T06:11:05.953Z,85.00
2019-02-04T06:12:07.604Z,84.90
2019-02-04T06:13:05.675Z,84.90
2019-02-04T06:14:05.936Z,84.90
2019-02-04T06:15:05.108Z,84.80
2019-02-04T06:16:05.208Z,84.80
2019-02-04T06:17:05.378Z,84.90
2019-02-04T06:18:05.844Z,84.90
2019-02-04T06:19:05.282Z,84.90
2019-02-04T06:20:05.568Z,84.90
2019-02-04T06:21:05.855Z,85.00
2019-02-04T06:22:05.942Z,85.10
2019-02-04T06:23:05.042Z,85.20
2019-02-04T06:24:05.227Z,85.20
2019-02-04T06:25:07.991Z,85.20
2019-02-04T06:26:11.174Z,85.20
2019-02-04T06:27:10.661Z,85.20
2019-02-04T06:28:05.767Z,85.20
2019-02-04T06:29:05.922Z,85.20
2019-02-04T06:30:05.037Z,85.20
2019-02-04T06:31:05.190Z,85.20
2019-02-04T06:32:07.874Z,85.20
2019-02-04T06:33:05.910Z,85.20
2019-02-04T06:34:08.173Z,85.10
2019-02-04T06:35:05.575Z,85.00
2019-02-04T06:36:05.722Z,85.10
2019-02-04T06:37:05.859Z,85.00
2019-02-04T06:38:05.915Z,85.20
2019-02-04T06:39:07.684Z,85.00
2019-02-04T06:40:05.678Z,85.00
2019-02-04T06:41:10.798Z,84.90
2019-02-04T06:42:05.806Z,85.00
2019-02-04T06:43:08.511Z,84.90
2019-02-04T06:44:05.583Z,84.80
2019-02-04T06:45:08.596Z,84.80
2019-02-04T06:46:05.630Z,84.80
2019-02-04T06:47:05.707Z,84.80
2019-02-04T06:48:05.847Z,84.80
2019-02-04T06:49:12.983Z,84.80
2019-02-04T06:50:10.637Z,84.80
2019-02-04T06:51:12.669Z,84.80
2019-02-04T06:52:05.744Z,84.80
2019-02-04T06:53:05.860Z,84.90
2019-02-04T06:54:06.124Z,84.90
2019-02-04T06:55:05.222Z,84.90
2019-02-04T06:56:05.303Z,84.70
2019-02-04T06:57:05.728Z,84.90
2019-02-04T06:58:07.562Z,84.80
2019-02-04T06:59:05.497Z,84.60
2019-02-04T07:00:05.649Z,84.60
2019-02-04T07:01:05.754Z,84.50
2019-02-04T07:02:08.479Z,84.50
2019-02-04T07:03:05.479Z,84.50
2019-02-04T07:04:05.610Z,84.50
2019-02-04T07:05:05.907Z,84.50
2019-02-04T07:06:07.805Z,84.50
2019-02-04T07:07:08.256Z,84.60
2019-02-04T07:08:05.166Z,84.50
2019-02-04T07:09:05.198Z,84.50
2019-02-04T07:10:05.412Z,84.50
2019-02-04T07:11:05.534Z,84.50
2019-02-04T07:12:05.729Z,84.50
2019-02-04T07:13:08.642Z,84.50
2019-02-04T07:14:11.027Z,84.60
2019-02-04T07:15:07.667Z,84.60
2019-02-04T07:16:05.753Z,84.60
2019-02-04T07:17:05.976Z,84.60
2019-02-04T07:18:05.157Z,84.70
2019-02-04T07:19:05.206Z,84.70
2019-02-04T07:20:07.900Z,84.60
2019-02-04T07:21:05.785Z,84.60
2019-02-04T07:22:08.333Z,84.50
2019-02-04T07:23:05.371Z,84.50
2019-02-04T07:24:05.481Z,84.50
2019-02-04T07:25:08.153Z,84.60
2019-02-04T07:26:10.211Z,84.60
2019-02-04T07:27:07.625Z,84.60
2019-02-04T07:28:05.912Z,84.60
2019-02-04T07:29:05.308Z,84.60
2019-02-04T07:30:06.071Z,84.70
2019-02-04T07:31:05.161Z,84.70
2019-02-04T07:32:10.489Z,84.90
2019-02-04T07:33:05.598Z,84.90
2019-02-04T07:34:05.858Z,84.90
2019-02-04T07:35:06.097Z,85.00
2019-02-04T07:36:05.274Z,85.10
2019-02-04T07:37:05.305Z,85.10
2019-02-04T07:38:07.878Z,85.10
2019-02-04T07:39:05.861Z,85.10
2019-02-04T07:40:06.083Z,85.00
2019-02-04T07:41:05.287Z,85.00
2019-02-04T07:42:10.470Z,85.00
2019-02-04T07:43:05.658Z,85.00
2019-02-04T07:44:08.448Z,85.00
2019-02-04T07:45:05.384Z,85.00
2019-02-04T07:46:10.473Z,85.10
2019-02-04T07:47:05.333Z,85.00
2019-02-04T07:48:05.372Z,85.10
2019-02-04T07:49:05.459Z,85.20
2019-02-04T07:50:05.651Z,85.40
2019-02-04T07:51:05.941Z,85.40
2019-02-04T07:52:07.945Z,85.60
2019-02-04T07:53:05.924Z,85.60
2019-02-04T07:54:06.016Z,85.60
2019-02-04T07:55:05.003Z,85.70
2019-02-04T07:56:05.101Z,85.60
2019-02-04T07:57:05.216Z,85.60
2019-02-04T07:58:07.801Z,85.50
2019-02-04T07:59:05.988Z,85.50
2019-02-04T08:00:07.836Z,85.30
2019-02-04T08:01:05.853Z,85.30
2019-02-04T08:02:05.969Z,85.50
2019-02-04T08:03:07.735Z,85.50
2019-02-04T08:04:10.779Z,85.50
2019-02-04T08:05:05.813Z,85.60
2019-02-04T08:06:05.866Z,85.60
2019-02-04T08:07:08.761Z,85.70
2019-02-04T08:08:05.018Z,85.60
2019-02-04T08:09:07.558Z,85.50
2019-02-04T08:10:08.037Z,85.50
2019-02-04T08:11:07.584Z,85.30
2019-02-04T08:12:05.530Z,85.30
2019-02-04T08:13:08.212Z,85.00
2019-02-04T08:14:07.764Z,85.00
2019-02-04T08:15:08.772Z,84.80
2019-02-04T08:16:05.071Z,84.80
2019-02-04T08:17:07.671Z,84.60
2019-02-04T08:18:05.630Z,84.60
2019-02-04T08:19:08.353Z,84.60
2019-02-04T08:20:05.352Z,84.70
2019-02-04T08:21:05.405Z,84.60
2019-02-04T08:22:05.556Z,84.60
2019-02-04T08:23:05.647Z,84.50
2019-02-04T08:24:08.186Z,84.40
2019-02-04T08:25:05.150Z,84.40
2019-02-04T08:26:05.172Z,84.20
2019-02-04T08:27:07.792Z,84.00
2019-02-04T08:28:08.426Z,84.00
2019-02-04T08:29:10.391Z,84.00
2019-02-04T08:30:05.790Z,84.00
2019-02-04T08:31:05.177Z,83.90
2019-02-04T08:32:05.225Z,83.90
2019-02-04T08:33:05.282Z,83.70
2019-02-04T08:34:05.614Z,83.90
2019-02-04T08:35:05.760Z,84.00
2019-02-04T08:36:08.496Z,83.80
2019-02-04T08:37:05.505Z,83.80
2019-02-04T08:38:10.905Z,83.70
2019-02-04T08:39:05.929Z,83.70
2019-02-04T08:40:05.077Z,83.80
2019-02-04T08:41:05.151Z,83.70
2019-02-04T08:42:05.349Z,83.70
2019-02-04T08:43:05.552Z,83.80
2019-02-04T08:44:05.675Z,83.90
2019-02-04T08:45:06.093Z,83.90
2019-02-04T08:46:05.318Z,84.10
2019-02-04T08:47:07.892Z,84.10
2019-02-04T08:48:06.022Z,84.10
2019-02-04T08:49:07.870Z,84.00
2019-02-04T08:50:05.872Z,84.00
2019-02-04T08:51:08.535Z,84.10
2019-02-04T08:52:05.640Z,84.10
2019-02-04T08:53:06.277Z,84.20
2019-02-04T08:54:08.147Z,84.00
2019-02-04T08:55:05.117Z,84.00
2019-02-04T08:56:05.192Z,84.10
2019-02-04T08:57:05.446Z,84.00
2019-02-04T08:58:05.556Z,83.80
2019-02-04T08:59:08.237Z,83.60
2019-02-04T09:00:05.483Z,83.60
2019-02-04T09:01:08.673Z,83.50
2019-02-04T09:02:10.163Z,83.50
2019-02-04T09:03:05.114Z,83.50
2019-02-04T09:04:05.216Z,83.30
2019-02-04T09:05:05.641Z,83.30
2019-02-04T09:06:05.892Z,83.30
2019-02-04T09:07:06.102Z,83.20
2019-02-04T09:08:05.600Z,83.30
2019-02-04T09:09:07.648Z,83.30
2019-02-04T09:10:05.652Z,83.40
2019-02-04T09:11:08.418Z,83.30
2019-02-04T09:12:05.376Z,83.30
2019-02-04T09:13:05.789Z,83.30
2019-02-04T09:14:05.971Z,83.20
2019-02-04T09:15:05.123Z,83.30
2019-02-04T09:16:05.103Z,83.30
2019-02-04T09:17:05.201Z,83.20
2019-02-04T09:18:05.299Z,83.20
2019-02-04T09:19:05.649Z,83.00
2019-02-04T09:20:10.752Z,83.00
2019-02-04T09:21:05.859Z,83.00
2019-02-04T09:22:05.929Z,83.20
2019-02-04T09:23:07.036Z,83.10
2019-02-04T09:24:07.895Z,83.10
2019-02-04T09:25:05.893Z,83.00
2019-02-04T09:26:05.974Z,83.00
2019-02-04T09:27:07.602Z,82.80
2019-02-04T09:28:05.642Z,82.80
2019-02-04T09:29:08.265Z,82.40
2019-02-04T09:30:05.224Z,82.40
2019-02-04T09:31:05.676Z,82.30
2019-02-04T09:32:07.623Z,82.30
2019-02-04T09:33:05.777Z,82.40
2019-02-04T09:34:08.409Z,82.40
2019-02-04T09:35:05.449Z,82.40
2019-02-04T09:36:08.088Z,82.30
2019-02-04T09:37:10.135Z,82.30
2019-02-04T09:38:05.138Z,82.40
2019-02-04T09:39:08.188Z,82.40
2019-02-04T09:40:05.596Z,82.40
2019-02-04T09:41:05.697Z,82.20
2019-02-04T09:42:05.193Z,82.20
2019-02-04T09:43:05.260Z,82.30
2019-02-04T09:44:05.359Z,82.10
2019-02-04T09:45:04.999Z,81.90
2019-02-04T09:46:05.380Z,81.90
2019-02-04T09:47:08.510Z,81.80
2019-02-04T09:48:08.017Z,81.90
2019-02-04T09:49:08.442Z,81.90
2019-02-04T09:50:05.358Z,81.90
2019-02-04T09:51:05.596Z,82.00
2019-02-04T09:52:05.608Z,81.80
2019-02-04T09:53:05.665Z,81.70
2019-02-04T09:54:06.052Z,81.70
2019-02-04T09:55:08.081Z,81.30
2019-02-04T09:56:07.773Z,81.20
2019-02-04T09:57:05.681Z,81.20
2019-02-04T09:58:05.762Z,81.10
2019-02-04T09:59:08.613Z,81.20
2019-02-04T10:00:05.518Z,81.20
2019-02-04T10:01:08.161Z,81.10
2019-02-04T10:02:05.129Z,81.20
2019-02-04T10:03:08.100Z,81.10
2019-02-04T10:04:05.111Z,81.10
2019-02-04T10:05:07.695Z,81.10
2019-02-04T10:06:05.739Z,81.10
2019-02-04T10:07:08.273Z,80.90
2019-02-04T10:08:05.138Z,80.90
2019-02-04T10:09:05.289Z,80.70
2019-02-04T10:10:05.676Z,80.50
2019-02-04T10:11:07.732Z,80.00
2019-02-04T10:12:05.813Z,80.00
2019-02-04T10:13:08.374Z,79.30
2019-02-04T10:14:08.040Z,79.30
2019-02-04T10:15:05.159Z,79.30
2019-02-04T10:16:05.482Z,79.40
2019-02-04T10:17:05.875Z,79.50
2019-02-04T10:18:05.037Z,79.50
2019-02-04T10:19:07.645Z,79.20
2019-02-04T10:20:05.694Z,79.20
2019-02-04T10:21:08.897Z,79.10
2019-02-04T10:22:09.013Z,79.10
2019-02-04T10:23:05.353Z,79.10
2019-02-04T10:24:06.542Z,79.10
2019-02-04T10:25:06.308Z,79.00
2019-02-04T10:26:05.468Z,78.70
2019-02-04T10:27:08.159Z,78.60
2019-02-04T10:28:05.115Z,78.60
2019-02-04T10:29:05.276Z,78.70
2019-02-04T10:30:05.375Z,78.60
2019-02-04T10:31:05.506Z,78.70
2019-02-04T10:32:08.051Z,78.20
2019-02-04T10:33:05.527Z,78.30
2019-02-04T10:34:06.004Z,78.20
2019-02-04T10:35:17.290Z,78.10
2019-02-04T10:36:11.093Z,78.00
2019-02-04T10:37:07.653Z,77.80
2019-02-04T10:38:05.718Z,77.70
2019-02-04T10:39:08.437Z,77.80
2019-02-04T10:40:05.338Z,77.80
2019-02-04T10:41:05.938Z,77.70
2019-02-04T10:42:05.323Z,77.70
2019-02-04T10:43:08.094Z,77.30
2019-02-04T10:44:05.230Z,77.30
2019-02-04T10:45:05.498Z,76.10
2019-02-04T10:46:10.575Z,75.80
2019-02-04T10:47:05.799Z,75.80
2019-02-04T10:48:05.929Z,75.00
2019-02-04T10:49:06.384Z,75.10
2019-02-04T10:50:05.542Z,74.90
2019-02-04T10:51:05.821Z,75.00
2019-02-04T10:52:05.944Z,75.00
2019-02-04T10:53:05.139Z,75.00
2019-02-04T10:54:05.236Z,75.40
2019-02-04T10:55:05.127Z,75.30
2019-02-04T10:56:05.331Z,75.30
2019-02-04T10:57:05.563Z,75.20
2019-02-04T10:58:05.101Z,75.40
2019-02-04T10:59:05.253Z,75.00
2019-02-04T11:00:05.491Z,75.00
2019-02-04T11:01:05.828Z,74.70
2019-02-04T11:02:11.165Z,74.30
2019-02-04T11:03:05.447Z,74.30
2019-02-04T11:04:05.662Z,74.40
2019-02-04T11:05:05.993Z,74.00
2019-02-04T11:06:05.204Z,73.80
2019-02-04T11:07:07.908Z,72.90
2019-02-04T11:08:06.257Z,72.80
2019-02-04T11:09:05.362Z,72.80
2019-02-04T11:10:05.627Z,72.70
2019-02-04T11:11:05.774Z,72.90
2019-02-04T11:12:06.115Z,73.10
2019-02-04T11:13:05.528Z,73.20
2019-02-04T11:14:05.670Z,73.20
2019-02-04T11:15:05.936Z,73.10
2019-02-04T11:16:05.285Z,73.20
2019-02-04T11:17:07.984Z,73.10
2019-02-04T11:18:06.091Z,73.10
2019-02-04T11:19:08.364Z,73.20
2019-02-04T11:20:05.767Z,73.20
2019-02-04T11:21:05.220Z,73.40
2019-02-04T11:22:07.832Z,73.30
2019-02-04T11:23:08.411Z,73.50
2019-02-04T11:24:07.972Z,73.50
2019-02-04T11:25:08.451Z,73.30
2019-02-04T11:26:05.470Z,73.30
2019-02-04T11:27:13.398Z,72.90
2019-02-04T11:28:05.684Z,72.90
2019-02-04T11:29:05.088Z,72.70
2019-02-04T11:30:08.234Z,72.70
2019-02-04T11:31:05.408Z,72.60
2019-02-04T11:32:05.537Z,72.90
2019-02-04T11:33:05.803Z,72.70
2019-02-04T11:34:08.547Z,72.30
2019-02-04T11:35:05.623Z,72.40
2019-02-04T11:36:08.744Z,72.40
2019-02-04T11:37:07.777Z,72.00
2019-02-04T11:38:11.034Z,71.80
2019-02-04T11:39:07.740Z,71.60
2019-02-04T11:40:05.802Z,71.70
2019-02-04T11:41:08.409Z,71.40
2019-02-04T11:42:10.497Z,71.20
2019-02-04T11:43:05.535Z,71.30
2019-02-04T11:44:05.797Z,71.10
2019-02-04T11:45:10.962Z,71.00
2019-02-04T11:46:05.930Z,70.90
2019-02-04T11:47:08.690Z,70.50
2019-02-04T11:48:05.607Z,70.60
2019-02-04T11:49:05.842Z,70.10
2019-02-04T11:50:05.268Z,69.50
2019-02-04T11:51:10.340Z,69.10
2019-02-04T11:52:05.405Z,69.40
2019-02-04T11:53:05.452Z,69.90
2019-02-04T11:54:08.014Z,69.00
2019-02-04T11:55:05.970Z,69.00
2019-02-04T11:56:05.166Z,68.70
2019-02-04T11:57:05.245Z,68.10
2019-02-04T11:58:08.359Z,68.40
2019-02-04T11:59:05.656Z,68.30
2019-02-04T12:00:05.834Z,68.40
2019-02-04T12:01:08.379Z,68.40
2019-02-04T12:02:07.864Z,68.60
2019-02-04T12:03:08.400Z,68.40
2019-02-04T12:04:09.165Z,68.30
2019-02-04T12:05:05.151Z,68.30
2019-02-04T12:06:07.927Z,67.90
2019-02-04T12:07:06.268Z,68.00
2019-02-04T12:08:05.759Z,68.30
2019-02-04T12:09:05.942Z,68.20
2019-02-04T12:10:06.064Z,67.90
2019-02-04T12:11:05.445Z,67.90
2019-02-04T12:12:08.023Z,67.60
2019-02-04T12:13:06.041Z,67.70
2019-02-04T12:14:07.788Z,67.70
2019-02-04T12:15:06.092Z,67.70
2019-02-04T12:16:07.969Z,68.10
2019-02-04T12:17:05.915Z,68.10
2019-02-04T12:18:06.550Z,68.30
2019-02-04T12:19:05.602Z,68.30
2019-02-04T12:20:08.111Z,67.90
2019-02-04T12:21:05.036Z,67.90
2019-02-04T12:22:07.742Z,67.90
2019-02-04T12:23:11.010Z,68.00
2019-02-04T12:24:07.799Z,67.90
2019-02-04T12:25:08.227Z,67.20
2019-02-04T12:26:05.273Z,67.20
2019-02-04T12:27:05.414Z,66.80
2019-02-04T12:28:05.582Z,66.90
2019-02-04T12:29:05.708Z,66.90
2019-02-04T12:30:05.577Z,66.90
2019-02-04T12:31:08.660Z,66.90
2019-02-04T12:32:05.808Z,66.90
2019-02-04T12:33:05.948Z,66.50
2019-02-04T12:34:05.064Z,66.20
2019-02-04T12:35:07.630Z,66.30
2019-02-04T12:36:05.542Z,66.20
2019-02-04T12:37:05.603Z,66.30
2019-02-04T12:38:05.925Z,66.30
2019-02-04T12:39:05.249Z,66.20
2019-02-04T12:40:07.762Z,66.20
2019-02-04T12:41:05.704Z,66.20
2019-02-04T12:42:05.759Z,66.10
2019-02-04T12:43:07.394Z,66.10
2019-02-04T12:44:05.556Z,65.60
2019-02-04T12:45:05.689Z,65.60
2019-02-04T12:46:06.145Z,65.90
2019-02-04T12:47:07.979Z,66.40
2019-02-04T12:48:05.953Z,66.30
2019-02-04T12:49:05.225Z,66.30
2019-02-04T12:50:12.906Z,66.10
2019-02-04T12:51:05.886Z,66.10
2019-02-04T12:52:08.450Z,66.20